createdAt,value
2018-11-22T12:17:30.903Z,45.13
2018-11-22T12:20:05.398Z,44.93
2018-11-22T12:22:40.500Z,44.50
2018-11-22T12:25:15.883Z,44.43
2018-11-22T12:27:52.493Z,42.97
2018-11-22T12:30:30.830Z,43.67
2018-11-22T12:33:09.287Z,44.57
2018-11-22T12:35:48.739Z,45.13
2018-11-22T12:38:28.095Z,45.37
2018-11-22T12:41:02.190Z,45.77
2018-11-22T12:43:36.156Z,45.97
2018-11-22T12:46:10.264Z,46.70
2018-11-22T12:48:44.292Z,46.53
2018-11-22T12:51:18.268Z,47.57
2018-11-22T12:53:52.349Z,46.43
2018-11-22T12:56:26.339Z,47.30
2018-11-22T12:59:00.350Z,47.07
2018-11-22T13:01:34.517Z,45.80
2018-11-22T13:04:08.559Z,48.07
2018-11-22T13:06:42.725Z,46.80
2018-11-22T13:09:16.736Z,47.43
2018-11-22T13:11:50.741Z,47.20
2018-11-22T13:14:24.743Z,48.33
2018-11-22T13:16:58.740Z,46.57
2018-11-22T13:19:32.804Z,46.03
2018-11-22T13:22:09.229Z,46.30
2018-11-22T13:24:43.233Z,46.63
2018-11-22T13:27:17.289Z,47.40
2018-11-22T13:29:51.758Z,46.83
2018-11-22T13:32:25.793Z,46.47
2018-11-22T13:34:59.814Z,46.53
2018-11-22T13:37:33.797Z,46.47
2018-11-22T13:40:09.711Z,45.67
2018-11-22T13:42:44.495Z,45.47
2018-11-22T13:45:20.978Z,44.23
2018-11-22T13:47:55.696Z,43.60
2018-11-22T13:50:31.057Z,44.57
2018-11-22T13:53:06.575Z,42.60
2018-11-22T13:55:40.833Z,42.70
2018-11-22T13:58:14.831Z,44.03
2018-11-22T14:00:48.974Z,43.13
2018-11-22T14:03:22.976Z,44.23
2018-11-22T14:05:57.100Z,43.37
2018-11-22T14:08:31.256Z,42.70
2018-11-22T14:11:13.393Z,43.43
2018-11-22T14:13:39.879Z,43.50
2018-11-22T14:16:13.884Z,43.57
2018-11-22T14:18:47.968Z,42.63
2018-11-22T14:21:22.049Z,43.70
2018-11-22T14:23:56.044Z,44.33
2018-11-22T14:26:30.072Z,43.83
2018-11-22T14:29:04.090Z,42.27
2018-11-22T14:31:38.093Z,43.33
2018-11-22T14:34:12.614Z,43.13
2018-11-22T14:36:46.697Z,43.90
2018-11-22T14:39:20.726Z,42.33
2018-11-22T14:41:54.765Z,42.70
2018-11-22T14:44:28.783Z,41.80
2018-11-22T14:47:02.888Z,42.20
2018-11-22T14:49:36.916Z,42.37
2018-11-22T14:52:11.128Z,42.70
2018-11-22T14:54:45.199Z,42.07
2018-11-22T14:57:19.267Z,42.07
2018-11-22T14:59:53.436Z,43.40
2018-11-22T15:02:27.460Z,41.80
2018-11-22T15:05:01.558Z,42.87
2018-11-22T15:07:35.616Z,42.73
2018-11-22T15:10:11.536Z,43.07
2018-11-22T15:12:46.698Z,42.63
2018-11-22T15:15:22.367Z,43.17
2018-11-22T15:17:56.496Z,42.53
2018-11-22T15:20:30.720Z,43.13
2018-11-22T15:23:04.847Z,44.43
2018-11-22T15:25:38.919Z,44.73
2018-11-22T15:28:13.132Z,43.37
2018-11-22T15:30:47.156Z,46.40
2018-11-22T15:33:21.476Z,46.30
2018-11-22T15:35:55.528Z,44.87
2018-11-22T15:38:29.527Z,44.53
2018-11-22T15:41:03.560Z,43.47
2018-11-22T15:43:37.553Z,46.17
2018-11-22T15:46:11.813Z,51.40
2018-11-22T15:48:45.846Z,48.10
2018-11-22T15:51:20.794Z,46.67
2018-11-22T15:53:54.873Z,44.87
2018-11-22T15:56:28.967Z,46.40
2018-11-22T15:59:03.072Z,47.63
2018-11-22T16:01:37.125Z,46.23
2018-11-22T16:04:11.213Z,45.33
2018-11-22T16:06:45.255Z,43.87
2018-11-22T16:09:19.256Z,44.30
2018-11-22T16:11:53.380Z,43.67
2018-11-22T16:14:27.428Z,42.20
2018-11-22T16:17:01.592Z,41.03
2018-11-22T16:19:35.605Z,41.70
2018-11-22T16:22:09.641Z,43.83
2018-11-22T16:24:43.756Z,64.70
2018-11-22T16:27:17.791Z,53.43
2018-11-22T16:29:51.891Z,46.93
2018-11-22T16:32:25.928Z,44.97
2018-11-22T16:35:00.132Z,43.40
2018-11-22T16:37:34.164Z,42.40
2018-11-22T16:40:10.511Z,42.63
2018-11-22T16:42:45.733Z,43.17
2018-11-22T16:45:19.980Z,41.83
2018-11-22T16:47:54.168Z,41.77
2018-11-22T16:50:29.358Z,42.60
2018-11-22T16:53:03.370Z,41.17
2018-11-22T16:55:38.539Z,40.87
2018-11-22T16:58:12.692Z,45.78
2018-11-22T17:00:46.824Z,44.77
2018-11-22T17:03:20.750Z,45.27
2018-11-22T17:05:54.792Z,45.33
2018-11-22T17:08:29.077Z,44.70
2018-11-22T17:11:03.211Z,46.23
2018-11-22T17:13:37.191Z,43.97
2018-11-22T17:16:11.368Z,42.53
2018-11-22T17:18:45.380Z,42.33
2018-11-22T17:21:19.435Z,43.03
2018-11-22T17:23:53.580Z,46.03
2018-11-22T17:26:27.668Z,48.90
2018-11-22T17:29:01.693Z,52.33
2018-11-22T17:31:35.839Z,52.53
2018-11-22T17:34:09.884Z,53.53
2018-11-22T17:36:44.464Z,53.40
2018-11-22T17:39:31.487Z,51.67
2018-11-22T17:42:33.612Z,51.57
2018-11-22T17:45:10.233Z,47.30
2018-11-22T17:47:44.408Z,46.43
2018-11-22T17:50:18.488Z,45.00
2018-11-22T17:52:52.608Z,47.10
2018-11-22T17:55:34.475Z,52.47
2018-11-22T17:58:08.624Z,50.47
2018-11-22T18:00:49.005Z,50.50
2018-11-22T18:03:23.483Z,47.57
2018-11-22T18:05:57.546Z,46.70
2018-11-22T18:08:31.748Z,44.30
2018-11-22T18:11:06.159Z,47.37
2018-11-22T18:13:40.215Z,50.60
2018-11-22T18:16:14.271Z,47.23
2018-11-22T18:18:49.355Z,44.20
2018-11-22T18:21:23.476Z,47.10
2018-11-22T18:23:57.578Z,56.67
2018-11-22T18:26:31.687Z,53.47
2018-11-22T18:29:05.767Z,83.67
2018-11-22T18:31:39.801Z,100.60
2018-11-22T18:34:14.024Z,58.20
2018-11-22T18:36:48.112Z,48.53
2018-11-22T18:39:22.264Z,46.07
2018-11-22T18:41:56.333Z,43.70
2018-11-22T18:44:30.351Z,43.57
2018-11-22T18:47:04.545Z,44.83
2018-11-22T18:49:38.684Z,44.17
2018-11-22T18:52:12.813Z,44.03
2018-11-22T18:54:46.872Z,42.23
2018-11-22T18:57:21.291Z,41.80
2018-11-22T18:59:55.299Z,42.90
2018-11-22T19:02:29.357Z,41.83
2018-11-22T19:05:03.481Z,39.73
2018-11-22T19:07:37.501Z,42.73
2018-11-22T19:10:14.825Z,42.50
2018-11-22T19:12:53.314Z,43.70
2018-11-22T19:15:28.689Z,41.13
2018-11-22T19:18:02.848Z,41.60
2018-11-22T19:20:38.328Z,41.23
2018-11-22T19:23:12.856Z,40.63
2018-11-22T19:25:47.997Z,41.80
2018-11-22T19:28:22.020Z,44.40
2018-11-22T19:30:56.113Z,45.40
2018-11-22T19:33:30.145Z,42.93
2018-11-22T19:36:04.267Z,45.77
2018-11-22T19:38:38.281Z,46.67
2018-11-22T19:41:13.364Z,45.33
2018-11-22T19:43:47.492Z,43.60
2018-11-22T19:46:21.481Z,43.83
2018-11-22T19:48:55.507Z,41.43
2018-11-22T19:51:29.548Z,42.37
2018-11-22T19:54:03.617Z,42.63
2018-11-22T19:56:37.777Z,41.60
2018-11-22T19:59:11.833Z,42.10
2018-11-22T20:01:46.101Z,42.50
2018-11-22T20:04:20.097Z,41.90
2018-11-22T20:06:54.180Z,42.43
2018-11-22T20:09:28.234Z,42.37
2018-11-22T20:12:02.238Z,41.83
2018-11-22T20:14:36.375Z,43.03
2018-11-22T20:17:10.392Z,41.93
2018-11-22T20:19:44.373Z,42.30
2018-11-22T20:22:18.565Z,42.40
2018-11-22T20:24:52.796Z,41.70
2018-11-22T20:27:27.044Z,41.37
2018-11-22T20:30:01.040Z,41.53
2018-11-22T20:32:38.799Z,41.97
2018-11-22T20:35:11.329Z,40.57
2018-11-22T20:37:46.056Z,42.43
2018-11-22T20:40:21.374Z,40.10
2018-11-22T20:42:55.500Z,39.57
2018-11-22T20:45:30.101Z,39.90
2018-11-22T20:48:05.477Z,42.27
2018-11-22T20:50:39.521Z,41.50
2018-11-22T20:53:13.704Z,41.63
2018-11-22T20:55:47.765Z,42.23
2018-11-22T20:58:21.773Z,42.23
2018-11-22T21:00:55.782Z,40.53
2018-11-22T21:03:29.790Z,41.10
2018-11-22T21:06:03.771Z,40.03
2018-11-22T21:08:48.574Z,40.77
2018-11-22T21:11:18.908Z,41.00
2018-11-22T21:13:53.555Z,40.33
2018-11-22T21:16:27.529Z,40.87
2018-11-22T21:19:01.618Z,41.77
2018-11-22T21:21:35.622Z,40.93
2018-11-22T21:24:09.748Z,40.83
2018-11-22T21:26:43.745Z,40.63
2018-11-22T21:29:17.764Z,40.73
2018-11-22T21:31:51.741Z,40.87
2018-11-22T21:34:25.817Z,40.83
2018-11-22T21:37:00.256Z,40.53
2018-11-22T21:39:34.272Z,40.10
2018-11-22T21:42:08.312Z,40.90
2018-11-22T21:44:42.345Z,40.90
2018-11-22T21:47:16.380Z,39.80
2018-11-22T21:49:50.560Z,40.83
2018-11-22T21:52:24.597Z,40.93
2018-11-22T21:54:58.609Z,39.27
2018-11-22T21:57:32.657Z,40.07
2018-11-22T22:00:10.908Z,40.50
2018-11-22T22:02:45.957Z,39.93
2018-11-22T22:05:19.594Z,41.47
2018-11-22T22:07:53.629Z,41.57
2018-11-22T22:10:27.741Z,41.60
2018-11-22T22:13:01.795Z,43.13
2018-11-22T22:15:36.562Z,46.20
2018-11-22T22:18:10.690Z,44.83
2018-11-22T22:20:44.695Z,44.03
2018-11-22T22:23:18.751Z,43.60
2018-11-22T22:25:52.773Z,43.07
2018-11-22T22:28:26.803Z,43.13
2018-11-22T22:31:00.873Z,42.07
2018-11-22T22:33:34.902Z,40.63
2018-11-22T22:36:08.980Z,40.63
2018-11-22T22:38:43.036Z,41.87
2018-11-22T22:41:17.073Z,41.93
2018-11-22T22:43:51.122Z,40.97
2018-11-22T22:46:25.125Z,40.93
2018-11-22T22:48:59.305Z,40.97
2018-11-22T22:51:33.983Z,39.47
2018-11-22T22:54:08.008Z,40.60
2018-11-22T22:56:42.047Z,40.97
2018-11-22T22:59:16.107Z,39.97
2018-11-22T23:01:50.172Z,40.27
2018-11-22T23:04:24.536Z,39.23
2018-11-22T23:06:58.542Z,40.23
2018-11-22T23:09:32.606Z,41.33
2018-11-22T23:12:06.844Z,39.90
2018-11-22T23:14:40.985Z,40.27
2018-11-22T23:17:14.997Z,39.87
2018-11-22T23:19:50.112Z,40.23
2018-11-22T23:22:24.158Z,40.13
2018-11-22T23:24:58.200Z,40.30
2018-11-22T23:27:32.269Z,41.83
2018-11-22T23:30:18.697Z,40.88
2018-11-22T23:32:53.908Z,41.07
2018-11-22T23:35:27.995Z,42.10
2018-11-22T23:38:01.993Z,41.10
2018-11-22T23:40:37.113Z,40.23
2018-11-22T23:43:11.109Z,41.50
2018-11-22T23:45:45.121Z,40.20
2018-11-22T23:48:19.145Z,38.10
2018-11-22T23:50:53.189Z,40.00
2018-11-22T23:53:27.291Z,38.20
2018-11-22T23:56:01.287Z,39.67
2018-11-22T23:58:35.285Z,39.97
